McDavid, Florida
Current Conditions -  °F | °C
As of 11:56 AM on Friday 24 Oct 2014 (Local Time) from KNSE Reporting Station
Few Clouds Few Clouds  
Wind Chill: 73°   Ceiling: Unl
Heat Index: 73°   Visibility: 10mi
Dew Point: 43°   Wind: 7mph
Humidity: 34%   Direction: NA
Pressure: 30.06"   Gusts: NA
Location:  30.87°N, 87.32°W
Report Text: KNSE 241656Z VRB06KT 10SM FEW180 FEW250 23/06 A3006 RMK AO2 SLP165 FU DSNT NW T02280061 $
Loading
Personal Weather Stations






























Interactive Weather Map
Tropical Storm Tracking
New forecast layout! Learn more

10-Day Weather Forecast

Advertisements
Track Severe Weather on mobile